Time;durP1;ratioP1;P1;durP2;ratioP2;P2;SDS_P1;SDS_P2;PMS_P1;PMS_P2;Temp;Humidity;BMP_temperature;BMP_pressure;BME280_temperature;BME280_humidity;BME280_pressure;Samples;Min_cycle;Max_cycle;Signal;HPM_P1;HPM_P2
2021/10/31 15:58:36;;;;;;;5.13;1.30;;;;;;;;;;5530753;22;20530;-39
2021/10/31 16:01:07;;;;;;;4.47;1.15;;;;;;;;;;5021730;28;20410;-42
2021/10/31 16:03:33;;;;;;;4.32;1.30;;;;;;;;;;5026118;28;20450;-42
2021/10/31 16:06:02;;;;;;;4.00;1.02;;;;;;;;;;5030837;28;20395;-41
2021/10/31 16:08:29;;;;;;;4.00;1.20;;;;;;;;;;5023675;28;20880;-41
2021/10/31 16:10:55;;;;;;;5.13;1.38;;;;;;;;;;5010974;28;20698;-41
2021/10/31 16:13:22;;;;;;;4.20;1.20;;;;;;;;;;5015933;28;20371;-42
2021/10/31 16:15:48;;;;;;;4.50;1.10;;;;;;;;;;5016302;28;20519;-40
2021/10/31 16:18:15;;;;;;;3.83;1.10;;;;;;;;;;5020582;28;20519;-42
2021/10/31 16:20:46;;;;;;;3.60;1.10;;;;;;;;;;5023637;28;20401;-41
2021/10/31 16:23:14;;;;;;;3.75;1.00;;;;;;;;;;5011416;28;20499;-42
2021/10/31 16:25:41;;;;;;;3.60;1.10;;;;;;;;;;5010990;28;20372;-40
2021/10/31 16:28:09;;;;;;;4.97;1.20;;;;;;;;;;5010805;28;20380;-49
2021/10/31 16:30:35;;;;;;;4.53;1.20;;;;;;;;;;5022600;28;20403;-40
2021/10/31 16:33:02;;;;;;;3.97;1.20;;;;;;;;;;5020428;28;20380;-39
2021/10/31 16:35:30;;;;;;;3.70;1.00;;;;;;;;;;5013734;28;20424;-40
2021/10/31 16:37:57;;;;;;;4.40;1.30;;;;;;;;;;5023443;28;20698;-39
2021/10/31 16:40:26;;;;;;;3.95;1.50;;;;;;;;;;5020291;28;20484;-41
2021/10/31 16:42:53;;;;;;;4.55;1.63;;;;;;;;;;5010172;28;20452;-39
2021/10/31 16:45:21;;;;;;;3.57;1.23;;;;;;;;;;5008815;28;20476;-41
2021/10/31 16:47:51;;;;;;;4.00;1.33;;;;;;;;;;5010274;28;20388;-41
2021/10/31 16:50:20;;;;;;;5.93;1.40;;;;;;;;;;5015251;28;20419;-41
2021/10/31 16:52:46;;;;;;;3.65;1.20;;;;;;;;;;5015963;28;20814;-38
2021/10/31 16:55:12;;;;;;;5.50;1.48;;;;;;;;;;5010512;28;20570;-41
2021/10/31 16:57:39;;;;;;;5.28;1.85;;;;;;;;;;5024418;28;20482;-41
2021/10/31 17:00:07;;;;;;;5.13;1.60;;;;;;;;;;5026387;28;20749;-40
2021/10/31 17:02:34;;;;;;;5.27;1.73;;;;;;;;;;5020805;28;20855;-40
2021/10/31 17:05:00;;;;;;;4.77;1.70;;;;;;;;;;5028298;28;20420;-40
2021/10/31 17:07:29;;;;;;;4.03;1.50;;;;;;;;;;5010480;28;20376;-40
2021/10/31 17:10:01;;;;;;;5.00;1.80;;;;;;;;;;5008923;28;20472;-41
2021/10/31 17:12:28;;;;;;;5.38;1.55;;;;;;;;;;5010246;28;20415;-40
2021/10/31 17:14:54;;;;;;;5.60;1.80;;;;;;;;;;5015364;28;20421;-40
2021/10/31 17:17:21;;;;;;;5.28;1.70;;;;;;;;;;5020947;28;20768;-40
2021/10/31 17:19:47;;;;;;;4.93;1.88;;;;;;;;;;5018955;28;20376;-41
2021/10/31 17:22:13;;;;;;;5.70;1.90;;;;;;;;;;5037117;28;20396;-41
2021/10/31 17:24:41;;;;;;;5.50;1.80;;;;;;;;;;5014531;28;20385;-40
2021/10/31 17:27:07;;;;;;;5.93;2.47;;;;;;;;;;5021614;28;20754;-41
2021/10/31 17:29:33;;;;;;;6.03;2.60;;;;;;;;;;5021978;28;20383;-38
2021/10/31 17:31:59;;;;;;;6.57;2.88;;;;;;;;;;5020101;28;20399;-40
2021/10/31 17:34:28;;;;;;;6.90;2.70;;;;;;;;;;5019765;28;20475;-41
2021/10/31 17:36:55;;;;;;;7.33;2.60;;;;;;;;;;5020123;28;20381;-41
2021/10/31 17:39:22;;;;;;;6.50;2.53;;;;;;;;;;5020144;28;20476;-40
2021/10/31 17:41:49;;;;;;;6.80;2.63;;;;;;;;;;5018915;28;20378;-40
2021/10/31 17:44:19;;;;;;;5.17;2.20;;;;;;;;;;5019674;28;20397;-40
2021/10/31 17:46:47;;;;;;;7.00;2.70;;;;;;;;;;5018012;28;21114;-40
2021/10/31 17:49:14;;;;;;;6.63;2.20;;;;;;;;;;5018069;28;20487;-39
2021/10/31 17:51:40;;;;;;;6.35;2.33;;;;;;;;;;5020612;28;20386;-39
2021/10/31 17:54:07;;;;;;;6.95;2.30;;;;;;;;;;5016936;28;20496;-39
2021/10/31 17:56:33;;;;;;;5.93;2.10;;;;;;;;;;5024159;28;20387;-42
2021/10/31 19:43:13;;;;;;;7.47;2.63;;;;;;;;;;5400855;22;20451;-51
2021/10/31 19:45:39;;;;;;;5.47;2.10;;;;;;;;;;5061808;28;20408;-49
2021/10/31 19:48:05;;;;;;;5.30;2.20;;;;;;;;;;5058334;28;20475;-48
2021/10/31 19:50:31;;;;;;;6.63;2.10;;;;;;;;;;5057187;28;20398;-49
2021/10/31 19:52:57;;;;;;;6.47;2.28;;;;;;;;;;5036435;28;20447;-52
2021/10/31 19:55:23;;;;;;;5.93;2.25;;;;;;;;;;5054910;28;20408;-49
2021/10/31 19:57:49;;;;;;;6.97;2.22;;;;;;;;;;5057909;28;20407;-49
2021/10/31 20:00:16;;;;;;;6.53;2.28;;;;;;;;;;5063422;28;20376;-53
2021/10/31 20:02:42;;;;;;;6.32;2.28;;;;;;;;;;5071382;28;20381;-45
2021/10/31 20:05:08;;;;;;;6.95;2.53;;;;;;;;;;5057719;28;20890;-44
2021/10/31 20:07:39;;;;;;;11.30;3.27;;;;;;;;;;5042128;28;20709;-44
2021/10/31 20:10:10;;;;;;;10.30;3.58;;;;;;;;;;5048573;28;20446;-44
2021/10/31 20:12:38;;;;;;;11.90;3.90;;;;;;;;;;5067118;28;20376;-43
2021/10/31 20:15:05;;;;;;;10.73;4.10;;;;;;;;;;5037935;28;20420;-42
2021/10/31 20:17:32;;;;;;;10.80;3.90;;;;;;;;;;5064187;28;20413;-46
2021/10/31 20:19:58;;;;;;;9.75;3.55;;;;;;;;;;5044474;28;20387;-45
2021/10/31 20:22:25;;;;;;;8.82;3.25;;;;;;;;;;5053007;28;20379;-47
2021/10/31 20:24:51;;;;;;;8.87;3.20;;;;;;;;;;5070836;28;20486;-46
2021/10/31 20:27:17;;;;;;;11.68;3.58;;;;;;;;;;5052708;28;21134;-46
2021/10/31 20:29:43;;;;;;;7.78;3.30;;;;;;;;;;5051776;28;20384;-45
2021/10/31 20:32:09;;;;;;;10.13;3.15;;;;;;;;;;5061646;28;20411;-45
2021/10/31 20:34:36;;;;;;;7.72;2.83;;;;;;;;;;5070767;28;20576;-46
2021/10/31 20:37:02;;;;;;;9.77;3.07;;;;;;;;;;5051380;28;20390;-47
2021/10/31 20:39:28;;;;;;;8.80;2.90;;;;;;;;;;5059540;28;20728;-47
2021/10/31 20:41:54;;;;;;;9.35;3.05;;;;;;;;;;5070291;28;20416;-44
2021/10/31 20:44:21;;;;;;;7.00;2.75;;;;;;;;;;5048950;28;20435;-47
